Time;durP1;ratioP1;P1;durP2;ratioP2;P2;SDS_P1;SDS_P2;PMS_P1;PMS_P2;Temp;Humidity;BMP_temperature;BMP_pressure;BME280_temperature;BME280_humidity;BME280_pressure;Samples;Min_cycle;Max_cycle;Signal;HPM_P1;HPM_P2
2022/08/04 00:00:11;;;;;;;13.00;3.67;;;23.90;99.90;;;;;;5051669;28;20203;-60
2022/08/04 00:03:20;;;;;;;10.35;4.00;;;23.90;99.90;;;;;;5053504;28;20288;-60
2022/08/04 00:06:10;;;;;;;12.23;3.15;;;23.90;99.90;;;;;;5042030;28;20183;-59
2022/08/04 00:08:48;;;;;;;8.63;3.67;;;23.90;99.90;;;;;;5055079;28;20211;-59
2022/08/04 00:11:20;;;;;;;9.82;3.47;;;23.90;99.90;;;;;;5044224;28;20239;-59
2022/08/04 00:14:02;;;;;;;10.35;3.42;;;23.90;99.90;;;;;;5033075;28;20229;-59
2022/08/04 00:16:30;;;;;;;10.02;3.38;;;23.90;99.90;;;;;;5034308;28;20198;-59
2022/08/04 00:19:21;;;;;;;11.45;3.50;;;23.90;99.90;;;;;;5017463;28;20195;-60
2022/08/04 00:21:58;;;;;;;13.90;3.38;;;23.90;99.90;;;;;;5051482;28;20670;-60
2022/08/04 00:24:29;;;;;;;9.18;3.30;;;23.90;99.90;;;;;;5030163;28;20176;-60
2022/08/04 00:26:55;;;;;;;11.15;3.53;;;23.90;99.90;;;;;;5051848;28;20699;-60
2022/08/04 00:29:21;;;;;;;6.25;3.40;;;23.80;99.90;;;;;;5043837;28;20212;-60
2022/08/04 00:31:50;;;;;;;8.50;3.35;;;23.80;99.90;;;;;;5042444;28;20688;-60
2022/08/04 00:34:16;;;;;;;10.02;3.47;;;23.80;99.90;;;;;;5045194;28;20646;-60
2022/08/04 00:36:43;;;;;;;6.55;3.47;;;23.80;99.90;;;;;;5050905;28;20191;-60
2022/08/04 00:39:12;;;;;;;7.47;3.40;;;23.80;99.90;;;;;;5042174;28;20241;-60
2022/08/04 00:41:50;;;;;;;11.68;3.63;;;23.80;99.90;;;;;;5049902;28;20269;-59
2022/08/04 00:45:01;;;;;;;8.77;3.33;;;23.80;99.90;;;;;;5051319;28;20191;-60
2022/08/04 00:47:42;;;;;;;8.73;3.38;;;23.70;99.90;;;;;;5044480;28;20198;-60
2022/08/04 00:50:17;;;;;;;7.53;3.15;;;23.70;99.90;;;;;;5035676;28;20241;-60
2022/08/04 00:52:46;;;;;;;12.55;3.97;;;23.60;99.90;;;;;;5054154;28;20269;-60
2022/08/04 00:55:26;;;;;;;7.90;3.40;;;23.60;99.90;;;;;;5045606;28;20210;-60
2022/08/04 00:58:12;;;;;;;15.30;3.75;;;23.50;99.90;;;;;;5016645;28;20210;-60
2022/08/04 01:00:51;;;;;;;13.57;3.90;;;23.50;99.90;;;;;;5033933;28;20184;-60
2022/08/04 01:03:35;;;;;;;15.02;4.28;;;23.40;99.90;;;;;;5041185;28;20663;-60
2022/08/04 01:06:27;;;;;;;15.95;4.38;;;23.40;99.90;;;;;;5025552;28;20242;-60
2022/08/04 01:09:44;;;;;;;8.30;3.97;;;23.30;99.90;;;;;;5033293;28;20653;-60
2022/08/04 01:12:25;;;;;;;11.10;4.20;;;23.30;99.90;;;;;;4990361;28;20204;-60
2022/08/04 01:15:17;;;;;;;12.93;4.25;;;23.30;99.90;;;;;;5027258;28;20655;-60
2022/08/04 01:18:07;;;;;;;10.45;4.20;;;23.30;99.90;;;;;;5032871;28;20180;-60
2022/08/04 01:20:41;;;;;;;10.43;3.95;;;23.30;99.90;;;;;;5016199;28;20265;-60
2022/08/04 01:23:41;;;;;;;10.18;4.03;;;23.30;99.90;;;;;;4996276;28;20572;-65
2022/08/04 01:26:07;;;;;;;9.07;3.83;;;23.40;99.90;;;;;;5018362;28;20180;-59
2022/08/04 01:29:03;;;;;;;13.25;3.90;;;23.30;99.90;;;;;;5017488;28;20266;-60
2022/08/04 01:31:44;;;;;;;9.43;3.50;;;23.30;99.90;;;;;;5025240;28;20281;-60
2022/08/04 01:34:12;;;;;;;8.20;3.35;;;23.30;99.90;;;;;;4997063;28;20695;-60
2022/08/04 01:36:44;;;;;;;16.02;3.72;;;23.30;99.90;;;;;;5002153;28;20219;-60
2022/08/04 01:41:59;;;;;;;9.40;3.63;;;23.30;99.90;;;;;;5031875;28;20203;-59
2022/08/04 01:44:28;;;;;;;10.48;3.67;;;23.30;99.90;;;;;;5033355;28;20199;-60
2022/08/04 01:46:54;;;;;;;15.05;4.15;;;23.20;99.90;;;;;;5026935;28;20202;-59
2022/08/04 01:49:24;;;;;;;7.18;3.50;;;23.30;99.90;;;;;;5013618;28;20188;-59
2022/08/04 01:51:51;;;;;;;11.80;3.85;;;23.20;99.90;;;;;;5031310;28;20270;-60
2022/08/04 01:54:18;;;;;;;7.38;3.80;;;23.20;99.90;;;;;;5032841;28;20184;-60
2022/08/04 01:56:49;;;;;;;12.05;4.20;;;23.20;99.90;;;;;;5016229;28;20185;-59
2022/08/04 01:59:18;;;;;;;10.60;3.78;;;23.20;99.90;;;;;;5013467;28;20195;-60
2022/08/04 02:01:44;;;;;;;6.57;3.78;;;23.20;99.90;;;;;;5015062;28;20216;-60
2022/08/04 02:04:19;;;;;;;7.47;3.88;;;23.10;99.90;;;;;;5013805;28;20171;-60
2022/08/04 02:07:13;;;;;;;8.23;4.00;;;23.10;99.90;;;;;;5012937;28;20183;-60
2022/08/04 02:10:06;;;;;;;11.15;4.07;;;23.10;99.90;;;;;;5034549;28;20219;-67
2022/08/04 02:12:55;;;;;;;10.13;4.38;;;23.10;99.90;;;;;;5007211;28;20199;-59
2022/08/04 02:15:26;;;;;;;11.18;4.70;;;23.10;99.90;;;;;;5044420;28;20180;-59
2022/08/04 02:18:16;;;;;;;11.00;4.70;;;23.10;99.90;;;;;;5049487;28;20209;-60
2022/08/04 02:20:47;;;;;;;13.43;4.75;;;23.10;99.90;;;;;;5042907;28;20210;-60
2022/08/04 02:23:18;;;;;;;11.70;4.57;;;23.10;99.90;;;;;;5044797;28;20214;-62
2022/08/04 02:25:54;;;;;;;10.98;4.70;;;23.10;99.90;;;;;;5049896;28;20185;-60
2022/08/04 02:28:23;;;;;;;8.27;4.10;;;23.10;99.90;;;;;;5037429;28;20190;-59
2022/08/04 02:31:12;;;;;;;12.95;4.30;;;23.00;99.90;;;;;;5024004;28;20186;-60
2022/08/04 02:33:42;;;;;;;7.68;4.05;;;23.00;99.90;;;;;;5034314;28;20654;-59
2022/08/04 02:36:28;;;;;;;9.18;4.28;;;23.00;99.90;;;;;;5023252;28;20179;-60
2022/08/04 02:39:05;;;;;;;13.90;4.15;;;23.00;99.90;;;;;;5028333;28;20175;-60
2022/08/04 02:41:32;;;;;;;9.85;4.32;;;23.00;99.90;;;;;;5034996;28;20245;-59
2022/08/04 02:44:04;;;;;;;9.20;4.18;;;23.00;99.90;;;;;;5032557;28;20194;-60
2022/08/04 02:46:31;;;;;;;10.82;4.20;;;22.90;99.90;;;;;;5044414;28;20183;-60
2022/08/04 02:49:00;;;;;;;8.88;3.92;;;23.00;99.90;;;;;;5032747;28;20171;-60
2022/08/04 02:51:33;;;;;;;10.23;4.30;;;22.90;99.90;;;;;;5047566;28;20197;-60
2022/08/04 02:54:01;;;;;;;11.45;4.13;;;22.90;99.90;;;;;;5052158;28;20187;-60
2022/08/04 02:56:30;;;;;;;10.35;3.97;;;22.90;99.90;;;;;;5053492;28;20198;-59
2022/08/04 02:59:05;;;;;;;9.57;3.97;;;22.90;99.90;;;;;;5037329;28;20198;-59
2022/08/04 03:01:32;;;;;;;11.70;3.97;;;22.90;99.90;;;;;;5038786;28;20233;-59
2022/08/04 03:04:24;;;;;;;9.80;3.90;;;22.90;99.90;;;;;;5053879;28;20213;-60
2022/08/04 03:07:04;;;;;;;9.68;4.20;;;22.90;99.90;;;;;;5054270;28;20190;-60
2022/08/04 03:09:51;;;;;;;14.38;3.70;;;22.90;99.90;;;;;;5036747;28;20635;-59
2022/08/04 03:12:25;;;;;;;17.20;5.30;;;22.90;99.90;;;;;;5022662;28;20184;-59
2022/08/04 03:14:57;;;;;;;7.68;3.60;;;22.90;99.90;;;;;;5020080;28;20270;-59
2022/08/04 03:17:43;;;;;;;11.90;3.75;;;22.90;99.90;;;;;;5037306;28;20270;-60
2022/08/04 03:20:33;;;;;;;9.75;3.80;;;22.90;99.90;;;;;;5039289;28;20179;-59
2022/08/04 03:23:35;;;;;;;5.88;3.30;;;22.90;99.90;;;;;;5054050;28;20223;-60
2022/08/04 03:26:22;;;;;;;10.23;3.42;;;22.80;99.90;;;;;;5048222;28;20186;-59
2022/08/04 03:29:03;;;;;;;9.35;3.40;;;22.80;99.90;;;;;;5044068;28;20271;-60
2022/08/04 03:32:05;;;;;;;15.10;3.50;;;22.80;99.90;;;;;;5047469;28;20191;-59
2022/08/04 03:34:50;;;;;;;8.02;3.08;;;22.70;99.90;;;;;;5056196;28;20254;-59
2022/08/04 03:38:02;;;;;;;10.90;3.40;;;22.70;99.90;;;;;;5035124;28;20184;-60
2022/08/04 03:40:59;;;;;;;11.23;3.58;;;22.70;99.90;;;;;;5035707;28;20184;-59
2022/08/04 03:43:40;;;;;;;8.50;3.40;;;22.60;99.90;;;;;;5034421;28;20690;-60
2022/08/04 03:46:51;;;;;;;10.75;3.30;;;22.50;99.90;;;;;;5036185;28;20176;-59
2022/08/04 03:49:48;;;;;;;9.50;3.28;;;22.50;99.90;;;;;;5015615;28;20279;-60
2022/08/04 03:55:59;;;;;;;12.15;5.32;;;22.40;99.90;;;;;;5051150;28;20191;-60
2022/08/04 03:58:43;;;;;;;14.20;3.40;;;22.40;99.90;;;;;;4992566;28;20185;-59
2022/08/04 04:01:20;;;;;;;9.43;3.47;;;22.40;99.90;;;;;;5041441;28;20673;-60
2022/08/04 04:04:02;;;;;;;7.68;3.38;;;22.30;99.90;;;;;;5050794;28;20186;-60
2022/08/04 04:06:48;;;;;;;11.20;3.80;;;22.20;99.90;;;;;;5050562;28;20193;-53
2022/08/04 04:09:52;;;;;;;7.38;3.63;;;22.20;99.90;;;;;;5037351;28;20175;-54
2022/08/04 04:12:24;;;;;;;9.73;3.75;;;22.20;99.90;;;;;;5036235;28;20211;-52
2022/08/04 04:15:08;;;;;;;16.17;4.03;;;22.20;99.90;;;;;;5052316;28;20233;-58
2022/08/04 04:17:34;;;;;;;12.40;4.10;;;22.20;99.90;;;;;;5045066;28;20183;-57
2022/08/04 04:20:28;;;;;;;7.05;3.72;;;22.20;99.90;;;;;;5032981;28;20207;-54
2022/08/04 04:23:09;;;;;;;10.90;3.97;;;22.20;99.90;;;;;;5034762;28;20200;-56
2022/08/04 04:25:58;;;;;;;9.57;3.58;;;22.10;99.90;;;;;;5040548;28;20191;-52
2022/08/04 04:28:34;;;;;;;9.85;3.88;;;22.20;99.90;;;;;;4997578;28;20192;-53
2022/08/04 04:31:42;;;;;;;8.07;3.53;;;22.20;99.90;;;;;;5033823;28;20701;-53
2022/08/04 04:34:26;;;;;;;11.60;3.38;;;22.20;99.90;;;;;;5035087;28;20183;-55
2022/08/04 04:37:20;;;;;;;11.65;3.45;;;22.20;99.90;;;;;;5050344;28;20187;-56
2022/08/04 04:39:46;;;;;;;9.77;3.53;;;22.10;99.90;;;;;;5039488;28;20179;-63
2022/08/04 04:42:30;;;;;;;8.77;3.92;;;22.10;99.90;;;;;;5047035;28;20216;-56
2022/08/04 04:45:09;;;;;;;9.63;3.45;;;22.10;99.90;;;;;;5042091;28;20190;-58
2022/08/04 04:47:56;;;;;;;10.25;3.53;;;22.10;99.90;;;;;;5033678;28;20186;-58
2022/08/04 04:50:36;;;;;;;11.60;3.30;;;22.10;99.90;;;;;;5038648;28;20237;-59
2022/08/04 04:53:02;;;;;;;10.85;3.30;;;22.10;99.90;;;;;;5034159;28;20183;-57
2022/08/04 04:55:35;;;;;;;13.52;3.50;;;22.00;99.90;;;;;;5032488;28;20788;-57
2022/08/04 04:58:03;;;;;;;12.02;3.30;;;22.10;99.90;;;;;;5052965;28;20271;-59
2022/08/04 05:00:59;;;;;;;13.30;3.40;;;22.00;99.90;;;;;;5051208;28;20201;-59
2022/08/04 05:03:46;;;;;;;8.85;3.30;;;22.00;99.90;;;;;;5016354;28;20245;-57
2022/08/04 05:06:31;;;;;;;10.23;2.97;;;22.00;99.90;;;;;;5033708;28;20211;-59
2022/08/04 05:09:15;;;;;;;13.07;3.50;;;22.00;99.90;;;;;;5049157;28;20187;-57
2022/08/04 05:11:57;;;;;;;8.63;3.33;;;22.00;99.90;;;;;;5047549;28;20280;-56
2022/08/04 05:14:28;;;;;;;11.23;3.30;;;22.00;99.90;;;;;;5033636;28;20207;-58
2022/08/04 05:17:00;;;;;;;9.38;3.67;;;22.00;99.90;;;;;;5050317;28;20219;-58
2022/08/04 05:19:46;;;;;;;9.52;3.60;;;22.00;99.90;;;;;;5053929;28;20240;-61
2022/08/04 05:22:20;;;;;;;12.07;3.33;;;22.00;99.90;;;;;;5033877;28;20208;-57
2022/08/04 05:24:48;;;;;;;11.90;4.00;;;22.00;99.90;;;;;;5015769;28;20214;-63
2022/08/04 05:27:21;;;;;;;25.55;3.63;;;22.00;99.90;;;;;;5027043;28;20184;-57
2022/08/04 05:30:13;;;;;;;8.65;3.33;;;22.00;99.90;;;;;;5037451;28;20546;-59
2022/08/04 05:33:17;;;;;;;12.27;3.78;;;22.00;99.90;;;;;;5030142;28;20279;-67
2022/08/04 05:35:48;;;;;;;17.65;3.60;;;22.00;99.90;;;;;;4980963;28;20196;-57
2022/08/04 05:38:21;;;;;;;11.18;3.63;;;22.00;99.90;;;;;;5014199;28;20196;-59
2022/08/04 05:40:48;;;;;;;10.05;3.45;;;22.00;99.90;;;;;;5038700;28;20582;-59
2022/08/04 05:43:15;;;;;;;12.57;3.40;;;22.10;99.90;;;;;;5032021;28;20215;-59
2022/08/04 05:45:42;;;;;;;9.32;2.85;;;22.10;99.90;;;;;;5040569;28;20221;-57
2022/08/04 05:48:09;;;;;;;14.35;3.30;;;22.10;99.90;;;;;;5040862;28;20262;-59
2022/08/04 05:50:36;;;;;;;16.23;4.13;;;22.10;99.90;;;;;;5043899;28;20191;-56
2022/08/04 05:53:03;;;;;;;11.40;3.40;;;22.10;99.90;;;;;;5034307;28;20202;-57
2022/08/04 05:55:29;;;;;;;16.10;3.47;;;22.10;99.90;;;;;;5050397;28;20631;-58
2022/08/04 05:58:00;;;;;;;12.40;3.30;;;22.10;99.90;;;;;;5046918;28;20184;-57
2022/08/04 06:00:28;;;;;;;10.88;3.15;;;22.10;99.90;;;;;;5038376;28;20649;-55
2022/08/04 06:02:56;;;;;;;10.73;2.58;;;22.10;99.90;;;;;;5038909;28;20212;-57
2022/08/04 06:05:24;;;;;;;13.55;2.55;;;22.20;99.90;;;;;;5037126;28;20190;-57
2022/08/04 06:07:49;;;;;;;11.27;2.85;;;22.20;99.90;;;;;;5053017;28;20730;-56
2022/08/04 06:10:16;;;;;;;14.45;2.90;;;22.10;99.90;;;;;;5027449;28;20315;-57
2022/08/04 06:12:46;;;;;;;13.55;3.13;;;22.10;99.90;;;;;;5033555;28;20269;-57
2022/08/04 06:15:18;;;;;;;20.77;3.10;;;22.10;99.90;;;;;;5035799;28;20187;-60
2022/08/04 06:18:02;;;;;;;10.05;2.88;;;22.10;99.90;;;;;;5042763;28;20180;-55
2022/08/04 06:20:32;;;;;;;10.13;2.70;;;22.10;99.90;;;;;;5038496;28;20179;-56
2022/08/04 06:23:03;;;;;;;8.68;2.70;;;22.10;99.90;;;;;;5031089;28;20666;-58
2022/08/04 06:25:33;;;;;;;6.97;2.67;;;22.20;99.90;;;;;;5041566;28;20230;-57
2022/08/04 06:28:04;;;;;;;10.43;2.58;;;22.10;99.90;;;;;;5052575;28;20179;-56
2022/08/04 06:30:31;;;;;;;9.48;2.42;;;22.20;99.90;;;;;;5045294;28;20188;-56
2022/08/04 06:33:01;;;;;;;13.32;3.85;;;22.20;99.90;;;;;;5030268;28;20190;-55
2022/08/04 06:35:30;;;;;;;13.18;4.00;;;22.20;99.90;;;;;;5038878;28;20186;-57
2022/08/04 06:37:57;;;;;;;10.82;2.80;;;22.20;99.90;;;;;;5050977;28;20172;-56
2022/08/04 06:40:24;;;;;;;8.27;3.22;;;22.20;99.90;;;;;;5037777;28;20183;-57
2022/08/04 06:42:52;;;;;;;10.95;3.10;;;22.30;99.90;;;;;;5052536;28;20659;-57
2022/08/04 06:45:20;;;;;;;8.43;2.65;;;22.30;99.90;;;;;;5042706;28;20210;-57
2022/08/04 06:47:47;;;;;;;9.73;2.50;;;22.40;99.90;;;;;;5037339;28;20182;-56
2022/08/04 06:50:15;;;;;;;16.73;3.03;;;22.40;99.90;;;;;;5036094;28;20175;-55
2022/08/04 06:52:43;;;;;;;10.77;2.40;;;22.40;99.90;;;;;;5042167;28;20274;-58
2022/08/04 06:55:09;;;;;;;12.73;2.67;;;22.40;99.90;;;;;;5033017;28;20259;-57
2022/08/04 06:57:36;;;;;;;10.55;2.53;;;22.50;99.90;;;;;;5014611;28;20180;-58
2022/08/04 07:00:12;;;;;;;6.00;2.40;;;22.50;99.90;;;;;;5042794;28;20176;-58
2022/08/04 07:02:43;;;;;;;6.80;2.28;;;22.60;99.90;;;;;;5050774;28;20203;-58
2022/08/04 07:05:10;;;;;;;7.43;2.38;;;22.60;99.90;;;;;;5030011;28;20370;-58
2022/08/04 07:07:37;;;;;;;11.60;2.75;;;22.70;99.90;;;;;;5031865;28;20188;-58
2022/08/04 07:10:03;;;;;;;7.47;2.70;;;22.70;99.90;;;;;;5027677;28;20578;-57
2022/08/04 07:12:31;;;;;;;6.82;2.45;;;22.70;99.90;;;;;;5028300;28;20211;-56
2022/08/04 07:14:58;;;;;;;10.95;3.22;;;22.80;99.90;;;;;;5045696;28;20357;-57
2022/08/04 07:17:27;;;;;;;8.55;3.20;;;22.80;99.90;;;;;;5016922;28;20645;-58
2022/08/04 07:19:52;;;;;;;9.98;2.60;;;22.80;99.90;;;;;;5035232;28;20548;-59
2022/08/04 07:22:19;;;;;;;8.25;2.45;;;22.80;99.90;;;;;;5071186;28;20214;-58
2022/08/04 07:24:48;;;;;;;7.63;2.30;;;22.80;99.90;;;;;;5060650;28;20194;-61
2022/08/04 07:27:16;;;;;;;6.68;2.75;;;22.80;99.90;;;;;;5051420;28;20566;-58
2022/08/04 07:29:42;;;;;;;10.05;2.35;;;22.80;99.90;;;;;;5016433;28;20187;-58
2022/08/04 07:32:10;;;;;;;6.60;2.40;;;22.90;99.90;;;;;;5047465;28;20202;-56
2022/08/04 07:34:37;;;;;;;8.15;2.33;;;22.90;99.90;;;;;;5033557;28;20556;-59
2022/08/04 07:37:03;;;;;;;6.07;2.20;;;23.00;99.90;;;;;;5032765;28;20195;-54
2022/08/04 07:39:32;;;;;;;15.52;2.45;;;23.00;99.90;;;;;;5035337;28;20196;-52
2022/08/04 07:42:00;;;;;;;10.38;2.88;;;23.10;99.90;;;;;;5033897;28;20217;-49
2022/08/04 07:44:27;;;;;;;10.43;2.25;;;23.10;99.90;;;;;;5049027;28;20187;-61
2022/08/04 07:46:53;;;;;;;9.00;2.15;;;23.10;99.90;;;;;;5018826;28;20283;-55
2022/08/04 07:49:20;;;;;;;6.80;2.25;;;23.20;99.90;;;;;;5018265;28;20282;-55
2022/08/04 07:51:47;;;;;;;6.30;2.17;;;23.20;99.90;;;;;;5048274;28;20250;-55
2022/08/04 07:54:14;;;;;;;9.02;2.33;;;23.30;99.90;;;;;;5035716;28;20207;-53
2022/08/04 07:56:40;;;;;;;6.80;2.20;;;23.30;99.90;;;;;;5035597;28;20211;-59
2022/08/04 07:59:06;;;;;;;7.50;2.75;;;23.40;99.90;;;;;;5035603;28;20200;-55
2022/08/04 08:01:36;;;;;;;10.40;2.58;;;23.40;99.90;;;;;;5028947;28;20187;-55
2022/08/04 08:04:06;;;;;;;6.82;2.17;;;23.50;99.90;;;;;;5021419;28;20286;-60
2022/08/04 08:06:34;;;;;;;5.10;2.30;;;23.50;99.90;;;;;;5048388;28;20270;-62
2022/08/04 08:09:05;;;;;;;5.93;2.47;;;23.60;99.90;;;;;;5050557;28;20259;-55
2022/08/04 08:11:32;;;;;;;9.18;2.20;;;23.60;99.90;;;;;;5047941;28;20227;-56
2022/08/04 08:13:58;;;;;;;6.68;2.40;;;23.60;99.90;;;;;;5038688;28;20188;-55
2022/08/04 08:16:25;;;;;;;5.32;2.20;;;23.70;99.80;;;;;;5034586;28;20180;-57
2022/08/04 08:18:51;;;;;;;6.10;2.38;;;23.70;99.30;;;;;;5039591;28;20241;-55
2022/08/04 08:21:20;;;;;;;6.53;2.35;;;23.80;99.00;;;;;;5041408;28;20196;-57
2022/08/04 08:23:46;;;;;;;7.28;2.30;;;23.90;98.50;;;;;;5033865;28;20250;-57
2022/08/04 08:26:12;;;;;;;7.32;2.00;;;24.00;97.90;;;;;;5017065;28;20196;-57
2022/08/04 08:28:38;;;;;;;6.90;2.20;;;24.10;97.30;;;;;;5034509;28;20184;-57
2022/08/04 08:31:05;;;;;;;4.97;1.73;;;24.10;96.80;;;;;;5043783;28;20191;-57
2022/08/04 08:33:31;;;;;;;5.70;1.80;;;24.20;96.30;;;;;;5037141;28;20214;-57
2022/08/04 08:36:12;;;;;;;4.82;1.70;;;24.20;96.00;;;;;;5032354;28;20636;-58
2022/08/04 08:39:01;;;;;;;4.20;1.70;;;24.30;95.30;;;;;;5038375;28;20180;-58
2022/08/04 08:41:45;;;;;;;7.15;1.75;;;24.40;94.60;;;;;;5048386;28;20266;-58
2022/08/04 08:44:49;;;;;;;6.88;2.10;;;24.40;94.70;;;;;;5034370;28;20224;-57
2022/08/04 08:47:57;;;;;;;5.25;1.85;;;24.40;94.30;;;;;;5034853;28;20184;-58
2022/08/04 08:50:25;;;;;;;4.55;1.77;;;24.50;94.10;;;;;;5037980;28;20175;-59
2022/08/04 08:53:07;;;;;;;4.78;1.90;;;24.50;93.70;;;;;;5051452;28;20234;-57
2022/08/04 08:55:59;;;;;;;4.72;1.88;;;24.60;93.10;;;;;;5032847;28;20226;-58
2022/08/04 08:58:58;;;;;;;8.32;2.05;;;24.70;91.60;;;;;;5040321;28;20180;-57
2022/08/04 09:01:51;;;;;;;8.35;1.88;;;24.70;91.90;;;;;;5010922;28;20199;-58
2022/08/04 09:04:40;;;;;;;3.72;1.63;;;24.80;91.30;;;;;;5016647;28;20194;-58
2022/08/04 09:07:28;;;;;;;5.82;2.20;;;24.90;91.20;;;;;;5043072;28;20208;-58
2022/08/04 09:10:02;;;;;;;6.90;1.95;;;25.00;90.00;;;;;;5016791;28;20308;-57
2022/08/04 09:12:59;;;;;;;7.65;2.20;;;25.00;90.30;;;;;;5035071;28;20226;-58
2022/08/04 09:15:55;;;;;;;6.07;1.80;;;25.00;90.00;;;;;;5045445;28;20199;-61
2022/08/04 09:18:40;;;;;;;8.95;2.10;;;25.00;90.20;;;;;;5036996;28;20191;-58
2022/08/04 09:21:29;;;;;;;5.95;1.90;;;25.10;89.40;;;;;;5024089;28;20657;-57
2022/08/04 09:23:55;;;;;;;5.40;1.90;;;25.10;89.70;;;;;;5025984;28;20215;-58
2022/08/04 09:26:49;;;;;;;4.50;1.80;;;25.00;89.40;;;;;;5046243;28;20179;-58
2022/08/04 09:29:30;;;;;;;5.00;2.00;;;25.10;87.70;;;;;;5026812;28;20638;-58
2022/08/04 09:32:08;;;;;;;5.50;1.70;;;25.20;87.30;;;;;;5050958;28;20190;-57
2022/08/04 09:34:39;;;;;;;6.05;2.00;;;25.30;85.40;;;;;;5019716;28;20187;-60
2022/08/04 09:37:24;;;;;;;5.88;2.15;;;25.20;84.40;;;;;;5016149;28;20187;-58
2022/08/04 09:40:04;;;;;;;5.50;1.98;;;25.20;84.20;;;;;;5034544;28;20206;-58
2022/08/04 09:42:57;;;;;;;7.43;2.10;;;25.30;85.00;;;;;;5046261;28;20286;-57
2022/08/04 09:45:31;;;;;;;8.35;2.10;;;25.30;84.60;;;;;;5051102;28;20171;-57
2022/08/04 09:48:06;;;;;;;4.05;1.98;;;25.30;84.20;;;;;;5035606;28;20242;-56
2022/08/04 09:50:40;;;;;;;8.00;2.95;;;25.30;83.60;;;;;;5050880;28;20225;-58
2022/08/04 09:53:08;;;;;;;6.15;2.80;;;25.30;82.70;;;;;;5053039;28;20176;-58
2022/08/04 09:55:37;;;;;;;8.88;2.83;;;25.20;81.90;;;;;;5050116;28;20277;-58
2022/08/04 09:58:02;;;;;;;7.05;2.70;;;25.20;82.60;;;;;;5033867;28;20194;-58
2022/08/04 10:00:39;;;;;;;7.22;2.92;;;25.20;82.40;;;;;;5038277;28;20192;-55
2022/08/04 10:03:06;;;;;;;8.15;3.10;;;25.20;81.00;;;;;;5038904;28;20302;-53
2022/08/04 10:05:50;;;;;;;8.02;1.90;;;25.20;81.10;;;;;;5041465;28;20194;-53
2022/08/04 10:08:51;;;;;;;7.78;2.50;;;25.20;79.70;;;;;;5038248;28;20249;-54
2022/08/04 10:11:49;;;;;;;4.90;1.67;;;25.20;78.70;;;;;;5042283;28;20313;-54
2022/08/04 10:14:49;;;;;;;5.00;1.95;;;25.20;76.80;;;;;;5032075;28;20180;-54
2022/08/04 10:17:18;;;;;;;3.55;1.90;;;25.20;76.40;;;;;;5026316;28;20521;-55
2022/08/04 10:19:46;;;;;;;5.97;1.95;;;25.30;77.80;;;;;;5042686;28;20178;-55
2022/08/04 10:22:18;;;;;;;9.40;1.90;;;25.40;78.50;;;;;;5031762;28;20247;-56
2022/08/04 10:25:04;;;;;;;5.57;2.03;;;25.30;79.20;;;;;;5039922;28;20183;-56
2022/08/04 10:27:39;;;;;;;3.78;1.90;;;25.40;78.70;;;;;;5032075;28;20203;-55
2022/08/04 10:30:13;;;;;;;4.50;1.77;;;25.40;79.30;;;;;;5024663;28;20207;-55
2022/08/04 10:32:51;;;;;;;5.47;1.85;;;25.40;78.80;;;;;;5042810;28;20270;-56
2022/08/04 10:35:26;;;;;;;3.30;1.83;;;25.40;77.30;;;;;;5037215;28;20211;-56
2022/08/04 10:38:12;;;;;;;7.18;2.13;;;25.40;77.30;;;;;;5050593;28;20186;-56
2022/08/04 10:41:07;;;;;;;7.95;1.85;;;25.40;75.50;;;;;;5035124;28;20188;-55
2022/08/04 10:44:23;;;;;;;8.13;2.90;;;25.50;76.50;;;;;;4962029;28;20230;-58
2022/08/04 10:46:54;;;;;;;4.15;1.67;;;25.50;76.10;;;;;;4949270;28;20634;-54
2022/08/04 10:49:36;;;;;;;6.43;2.15;;;25.50;74.10;;;;;;5033015;28;20173;-48
2022/08/04 10:52:19;;;;;;;8.98;2.00;;;25.50;75.30;;;;;;5032660;28;20202;-60
2022/08/04 10:54:56;;;;;;;5.68;2.20;;;25.50;75.50;;;;;;5014999;28;20266;-56
2022/08/04 10:57:34;;;;;;;5.78;1.80;;;25.60;77.00;;;;;;5032187;28;20179;-56
2022/08/04 11:00:15;;;;;;;5.47;1.67;;;25.70;77.30;;;;;;5032658;28;20354;-56
2022/08/04 11:02:44;;;;;;;5.20;1.98;;;25.90;77.40;;;;;;5052441;28;20207;-56
2022/08/04 11:05:24;;;;;;;7.93;1.90;;;26.20;76.40;;;;;;5050190;28;20573;-55
2022/08/04 11:07:56;;;;;;;5.32;1.70;;;26.30;75.30;;;;;;5031089;28;20183;-56
2022/08/04 11:10:27;;;;;;;3.67;1.60;;;26.60;74.10;;;;;;5015550;28;20232;-58
2022/08/04 11:12:58;;;;;;;14.63;11.98;;;26.70;72.80;;;;;;5048333;28;20183;-57
2022/08/04 11:15:33;;;;;;;12.70;11.43;;;26.80;72.40;;;;;;5037575;28;20175;-56
2022/08/04 11:18:07;;;;;;;14.38;11.45;;;26.90;72.40;;;;;;5036760;28;20214;-55
2022/08/04 11:20:42;;;;;;;6.85;1.92;;;27.10;71.10;;;;;;5011097;28;20182;-54
2022/08/04 11:23:11;;;;;;;4.28;1.60;;;27.20;69.60;;;;;;5036467;28;20367;-58
2022/08/04 11:25:43;;;;;;;3.30;1.55;;;27.30;68.40;;;;;;5028316;28;20179;-62
2022/08/04 11:28:24;;;;;;;4.63;1.80;;;27.30;67.10;;;;;;5056183;28;20193;-55
2022/08/04 11:31:03;;;;;;;3.90;1.67;;;27.30;66.60;;;;;;5043468;28;20221;-56
2022/08/04 11:33:47;;;;;;;3.60;1.73;;;27.40;66.90;;;;;;5036076;28;20217;-55
2022/08/04 11:36:24;;;;;;;4.50;1.60;;;27.40;66.40;;;;;;5044328;28;20644;-52
2022/08/04 11:38:56;;;;;;;5.43;1.90;;;27.60;65.80;;;;;;5038485;28;20183;-51
2022/08/04 11:41:49;;;;;;;5.93;1.80;;;27.60;64.90;;;;;;5048114;28;20552;-54
2022/08/04 11:44:22;;;;;;;7.65;1.80;;;27.70;64.80;;;;;;5039454;28;20186;-54
2022/08/04 11:46:54;;;;;;;4.47;1.40;;;27.90;64.10;;;;;;5042999;28;20184;-56
2022/08/04 11:49:32;;;;;;;7.70;2.13;;;27.90;62.20;;;;;;5045710;28;20197;-57
2022/08/04 11:51:59;;;;;;;7.35;1.92;;;27.90;62.20;;;;;;5044902;28;20271;-56
2022/08/04 11:54:26;;;;;;;8.05;1.88;;;27.90;61.70;;;;;;5055286;28;20270;-58
2022/08/04 11:56:54;;;;;;;5.15;1.95;;;27.90;61.20;;;;;;5045647;28;20271;-58
2022/08/04 11:59:22;;;;;;;5.88;1.77;;;28.00;60.20;;;;;;5043446;28;20186;-55
2022/08/04 12:02:12;;;;;;;14.27;1.80;;;27.90;59.80;;;;;;5047355;28;20184;-55
2022/08/04 12:04:57;;;;;;;5.47;1.50;;;27.80;60.00;;;;;;5048697;28;20262;-54
2022/08/04 12:07:44;;;;;;;6.35;1.60;;;27.80;59.20;;;;;;5035342;28;20171;-53
2022/08/04 12:10:12;;;;;;;3.25;1.40;;;27.80;59.70;;;;;;5034890;28;20277;-52
2022/08/04 12:12:49;;;;;;;4.05;1.50;;;27.80;59.90;;;;;;5039728;28;20215;-57
2022/08/04 12:15:35;;;;;;;4.22;1.70;;;27.80;59.20;;;;;;5042903;28;20196;-50
2022/08/04 12:18:17;;;;;;;5.75;1.70;;;27.80;59.00;;;;;;5046279;28;20182;-62
2022/08/04 12:20:56;;;;;;;4.03;1.50;;;27.90;59.00;;;;;;5040193;28;20186;-58
2022/08/04 12:23:31;;;;;;;3.83;1.38;;;28.00;58.70;;;;;;5034743;28;20711;-57
2022/08/04 12:26:02;;;;;;;1.95;1.20;;;28.20;58.00;;;;;;5043720;28;20182;-59
2022/08/04 12:28:43;;;;;;;3.65;1.27;;;28.30;57.00;;;;;;5032215;28;20205;-57
2022/08/04 12:31:22;;;;;;;7.43;1.27;;;28.30;56.50;;;;;;5045652;28;20626;-52
2022/08/04 12:33:53;;;;;;;3.60;1.30;;;28.40;57.30;;;;;;5049415;28;20178;-56
2022/08/04 12:36:42;;;;;;;3.75;1.30;;;28.60;57.50;;;;;;5052990;28;20197;-57
2022/08/04 12:39:16;;;;;;;3.67;1.33;;;28.90;55.80;;;;;;5037396;28;20265;-58
2022/08/04 12:42:22;;;;;;;4.47;1.45;;;28.90;55.40;;;;;;5047979;28;20217;-52
2022/08/04 12:44:53;;;;;;;5.00;1.52;;;29.00;55.00;;;;;;5034950;28;20198;-55
2022/08/04 12:47:24;;;;;;;5.22;1.45;;;29.00;55.50;;;;;;5041566;28;20214;-56
2022/08/04 12:49:51;;;;;;;3.78;1.20;;;29.10;55.90;;;;;;5035946;28;20187;-50
2022/08/04 12:52:19;;;;;;;3.00;1.58;;;29.20;56.50;;;;;;5037051;28;20239;-56
2022/08/04 12:54:47;;;;;;;4.32;1.60;;;29.40;56.10;;;;;;5038650;28;20194;-56
2022/08/04 12:57:16;;;;;;;3.20;1.50;;;29.40;56.30;;;;;;5037669;28;20186;-60
2022/08/04 12:59:46;;;;;;;4.20;1.50;;;29.30;55.70;;;;;;5053941;28;20225;-54
2022/08/04 13:02:22;;;;;;;4.88;1.30;;;29.30;54.90;;;;;;5037219;28;20210;-57
2022/08/04 13:04:50;;;;;;;3.05;1.20;;;29.20;54.70;;;;;;5052550;28;20174;-59
2022/08/04 13:07:23;;;;;;;7.03;1.45;;;29.10;54.60;;;;;;5035600;28;20209;-56
2022/08/04 13:09:50;;;;;;;4.35;1.50;;;28.90;55.00;;;;;;5034800;28;20682;-57
2022/08/04 13:12:28;;;;;;;6.97;1.50;;;28.90;56.90;;;;;;5034105;28;20167;-58
2022/08/04 13:15:07;;;;;;;4.20;1.55;;;29.00;57.40;;;;;;5020749;28;20281;-59
2022/08/04 13:18:09;;;;;;;3.47;1.60;;;29.30;57.50;;;;;;5035596;28;20183;-58
2022/08/04 13:20:37;;;;;;;4.28;2.13;;;29.20;56.80;;;;;;5025832;28;20199;-57
2022/08/04 13:23:10;;;;;;;2.67;1.30;;;29.20;56.60;;;;;;5045767;28;20532;-58
2022/08/04 13:25:40;;;;;;;6.68;1.67;;;29.20;56.00;;;;;;5035033;28;20190;-57
2022/08/04 13:28:33;;;;;;;7.22;1.70;;;29.20;56.60;;;;;;5052794;28;20186;-59
2022/08/04 13:31:01;;;;;;;4.45;1.50;;;29.30;57.60;;;;;;5054042;28;20630;-57
2022/08/04 13:33:33;;;;;;;5.75;1.38;;;29.40;56.80;;;;;;5053317;28;20186;-60
2022/08/04 13:35:59;;;;;;;6.50;1.73;;;29.60;56.70;;;;;;5021681;28;20176;-57
2022/08/04 13:38:26;;;;;;;6.68;1.48;;;29.70;56.50;;;;;;5050481;28;20183;-58